• Join FlightAware (Why Join?)
  • Login
  • US Flag 
02:33PM EDT


 

Airport Tracker/Info


-or-


 

Live Flight TrackerFlight Track Log ✈ ACA831 ✈ 23-Jun-2013 ✈ LSGG / GVA - CYUL

Flight Track Log - Related Links

Times and Time Zones

All times are in EDT time to prevent confusion due to time zone crossing. See the ACA831 flight status page for this flight to view local times or setup timezone preferences in your user account.

Time Position Orientation Groundspeed Altitude Reporting Facility
EDT Latitude Longitude Course Direction KTS MPH feet Rate Location/Type
06:04AM 46.2330 6.1060 North 4 5  Level FlightAware
06:05AM 46.2330 6.1050 270° West 6 7 120 Level FlightAware
06:06AM 46.2320 6.1060 145° Southeast 8 9 120 Level FlightAware
06:06AM 46.2330 6.1080 54° Northeast 11 13 120 Level FlightAware
06:07AM 46.2340 6.1090 35° Northeast 15 17 120 Level FlightAware
06:07AM 46.2350 6.1110 54° Northeast 14 16 120 Level FlightAware
06:07AM 46.2360 6.1120 35° Northeast 10 12 180 Level FlightAware
06:08AM 46.2370 6.1110 325° Northwest 12 14 180 Level FlightAware
06:08AM 46.2380 6.1120 35° Northeast 13 15 180 Level FlightAware
06:09AM 46.2390 6.1140 54° Northeast 17 20 180 Level FlightAware
06:09AM 46.2410 6.1160 35° Northeast 22 25 180 Level FlightAware
06:09AM 46.2420 6.1180 54° Northeast 22 25 180 Level FlightAware
06:10AM 46.2440 6.1200 35° Northeast 21 24 180 Level FlightAware
06:10AM 46.2450 6.1230 64° Northeast 17 20 180 Level FlightAware
06:11AM 46.2480 6.1260 35° Northeast 11 13 240 Level FlightAware
06:11AM 46.2480 6.1270 90° East 8 9 240 Level FlightAware
06:12AM 46.2490 6.1270 360° North 5 6 240 Level FlightAware
06:14AM 46.3566 5.8597 296° West  Level Estimated
06:15AM 46.4140 5.7161 301° West  Level Estimated
06:16AM 46.4712 5.5722 299° West  Level Estimated
06:17AM 46.5062 5.4140 288° West  Level FlightAware Approximate
06:17AM 46.2500 6.1270 288° West 10 12  Level FlightAware
06:18AM 46.2490 6.1250 234° Southwest 44 51 1,140 Level FlightAware
06:18AM 46.2420 6.1140 227° Southwest 150 173 2,520 Level FlightAware
06:19AM 46.2260 6.0910 225° Southwest 179 206 2,100 4,320 Climbing FlightAware
06:19AM 46.2190 6.0820 222° Southwest 163 188 2,900 2,400 Climbing FlightAware
06:19AM 46.2000 6.0540 226° Southwest 186 214 3,900 2,100 Climbing FlightAware
06:20AM 46.1820 6.0270 226° Southwest 190 219 5,000 2,220 Climbing FlightAware
06:20AM 46.1580 5.9920 225° Southwest 183 211 6,500 1,920 Climbing FlightAware
06:21AM 46.1440 5.9670 231° Southwest 196 226 7,200 1,320 Climbing FlightAware
06:21AM 46.1420 5.9540 257° West 211 243 7,300 1,380 Climbing FlightAware
06:22AM 46.1660 5.9160 312° West 252 290 8,200 1,560 Climbing FlightAware
06:22AM 46.2040 5.9230 North 270 311 9,000 1,740 Climbing FlightAware
06:23AM 46.2320 5.9330 14° North 273 314 9,800 1,680 Climbing FlightAware
06:23AM 46.2650 5.9170 341° North 279 321 10,400 1,260 Climbing FlightAware
06:24AM 46.3230 5.8720 332° Northwest 331 381 11,300 1,200 Climbing FlightAware
06:24AM 46.3950 5.8350 340° North 386 444 12,300 1,500 Climbing FlightAware
06:25AM 46.4600 5.8450 North 406 467 13,500 1,980 Climbing FlightAware
06:26AM 46.5480 5.8630 North 426 490 15,000 2,040 Climbing FlightAware
06:27AM 46.6290 5.8800 North 451 519 16,300 1,860 Climbing FlightAware
06:27AM 46.7180 5.8990 North 456 525 17,700 1,920 Climbing FlightAware
06:28AM 46.8190 5.9200 North 476 548 19,500 1,740 Climbing FlightAware
06:29AM 46.9260 5.9430 North 493 567 20,600 1,620 Climbing FlightAware
06:30AM 47.0170 5.9620 North 501 577 21,800 1,860 Climbing FlightAware
06:30AM 47.0800 5.9750 North 507 583 22,600 1,560 Climbing FlightAware
06:31AM 47.1820 5.9970 North 519 597 23,600 1,380 Climbing FlightAware
06:31AM 47.2900 6.0200 North 527 606 24,800 1,620 Climbing FlightAware
06:32AM 47.3850 6.0330 North 525 604 25,900 1,860 Climbing FlightAware
06:33AM 47.4930 6.0380 North 519 597 27,400 1,920 Climbing FlightAware
06:34AM 47.6320 6.0440 North 518 596 29,100 1,560 Climbing FlightAware
06:34AM 47.7110 6.0460 North 514 592 29,900 600 Climbing FlightAware
06:35AM 47.8200 6.0500 North 515 593 30,000 60 Climbing FlightAware
06:36AM 47.9070 6.0530 North 514 592 30,000  Level FlightAware
06:36AM 47.9950 6.0570 North 512 589 30,000  Level FlightAware
06:37AM 48.0780 6.0600 North 513 590 30,000  Level FlightAware
06:38AM 48.2210 6.0650 North 513 590 30,000  Level FlightAware
06:39AM 48.3220 6.0690 North 515 593 30,000  Level FlightAware
06:39AM 48.4220 6.0730 North 514 592 30,000  Level FlightAware
06:40AM 48.5250 6.0770 North 515 593 30,000  Level FlightAware
06:40AM 48.5880 6.0790 North 516 594 30,000  Level FlightAware
06:41AM 48.7120 6.0840 North 515 593 30,000  Level FlightAware
06:42AM 48.8230 6.0890 North 525 604 30,000  Level FlightAware
06:43AM 48.9310 6.0930 North 527 606 30,000  Level FlightAware
06:44AM 49.0390 6.0970 North 528 608 30,000  Level FlightAware
06:44AM 49.0950 6.0900 355° North 514 592 30,000  Level FlightAware
06:45AM 49.1820 6.0760 354° North 515 593 30,000  Level FlightAware
06:45AM 49.2790 6.0600 354° North 514 592 30,000  Level FlightAware
06:46AM 49.3680 6.0440 353° North 515 593 30,000  Level FlightAware
06:47AM 49.4670 6.0250 353° North 515 593 30,000  Level FlightAware
06:47AM 49.5710 6.0070 354° North 515 593 30,000  Level FlightAware
06:48AM 49.6700 5.9880 353° North 514 592 30,000  Level FlightAware
06:49AM 49.7660 5.9520 346° North 487 560 30,000  Level FlightAware
06:49AM 49.8560 5.8840 334° Northwest 490 564 30,000  Level FlightAware
06:50AM 49.9460 5.8260 337° Northwest 488 562 30,000  Level FlightAware
06:51AM 50.0310 5.7700 337° Northwest 485 558 30,000  Level FlightAware
06:52AM 50.1160 5.7120 336° Northwest 484 557 30,000  Level FlightAware
06:52AM 50.2010 5.6550 337° Northwest 482 555 30,000  Level FlightAware
06:53AM 50.2740 5.6050 336° Northwest 481 554 30,000  Level FlightAware
06:54AM 50.3600 5.5460 336° Northwest 480 552 30,000  Level FlightAware
06:54AM 50.4270 5.5000 336° Northwest 479 551 30,000  Level FlightAware
06:55AM 50.5040 5.4470 336° Northwest 477 549 30,000  Level FlightAware
06:55AM 50.5890 5.3890 337° Northwest 472 543 30,000  Level FlightAware
06:56AM 50.6520 5.3450 336° Northwest 471 542 30,000  Level FlightAware
06:57AM 50.7290 5.2910 336° Northwest 471 542 30,000  Level FlightAware
06:57AM 50.8170 5.2300 336° Northwest 470 541 30,000  Level FlightAware
06:58AM 50.8830 5.1840 336° Northwest 469 540 30,000  Level FlightAware
06:59AM 50.9720 5.1220 336° Northwest 466 536 30,000  Level FlightAware
06:59AM 51.0470 5.0690 336° Northwest 465 535 30,000  Level FlightAware
07:00AM 51.1380 5.0050 336° Northwest 464 534 30,000  Level FlightAware
07:01AM 51.2150 4.9500 336° Northwest 463 533 30,000  Level FlightAware
07:01AM 51.3000 4.8890 336° Northwest 463 533 30,000  Level FlightAware
07:02AM 51.3630 4.8440 336° Northwest 463 533 30,000  Level FlightAware
07:02AM 51.3829 4.8281 336° Northwest 468 539 30,000  Level FlightAware UK
07:03AM 51.4500 4.7830 336° Northwest 463 533 30,000  Level FlightAware
07:04AM 51.5400 4.7180 336° Northwest 464 534 30,000  Level FlightAware
07:04AM 51.6170 4.6620 336° Northwest 464 534 30,000  Level FlightAware
07:05AM 51.6870 4.6087 336° Northwest 464 534 30,000  Level FlightAware UK
07:05AM 51.6920 4.6080 336° Northwest 466 536 30,000  Level FlightAware
07:05AM 51.7600 4.5580 336° Northwest 466 536 30,000  Level FlightAware
07:06AM 51.8560 4.4870 335° Northwest 466 536 30,000  Level FlightAware
07:07AM 51.9320 4.4320 336° Northwest 464 534 30,000  Level FlightAware
07:07AM 51.9980 4.3830 335° Northwest 464 534 30,000  Level FlightAware
07:08AM 52.0660 4.3330 336° Northwest 463 533 30,000  Level FlightAware
07:09AM 52.1320 4.2840 336° Northwest 463 533 30,000  Level FlightAware
07:09AM 52.2170 4.2200 335° Northwest 464 534 30,000  Level FlightAware
07:10AM 52.3310 4.1350 336° Northwest 463 533 30,000  Level FlightAware
07:11AM 52.4200 4.0680 335° Northwest 464 534 30,000  Level FlightAware
07:12AM 52.5010 4.0070 335° Northwest 465 535 30,000  Level FlightAware
07:12AM 52.5710 3.9540 335° Northwest 466 536 30,000  Level FlightAware
07:13AM 52.6410 3.9010 335° Northwest 466 536 30,000  Level FlightAware
07:14AM 52.7500 3.8170 335° Northwest 466 536 30,000  Level FlightAware
07:14AM 52.8160 3.7670 335° Northwest 467 537 30,000  Level FlightAware
07:15AM 52.9090 3.6940 335° Northwest 467 537 30,000 -120 Level FlightAware
07:15AM 52.9184 3.6884 335° Northwest 474 545 29,900  Descending FlightAware UK
07:16AM 52.9770 3.6420 335° Northwest 467 537 30,000 60 Climbing FlightAware
07:17AM 53.0650 3.5730 335° Northwest 465 535 30,000  Level FlightAware
07:17AM 53.1230 3.5280 335° Northwest 463 533 30,000  Level FlightAware
07:18AM 53.1960 3.4710 335° Northwest 460 529 30,000 -120 Level FlightAware
07:18AM 53.2801 3.4130 335° Northwest 474 545 29,900  Descending FlightAware UK
07:18AM 53.2820 3.4110 335° Northwest 462 532 30,000  Climbing FlightAware
07:19AM 53.3524 3.3701 335° Northwest 470 541 29,900  Descending FlightAware UK
07:19AM 53.3680 3.3610 335° Northwest 462 532 30,000 120 Climbing FlightAware
07:20AM 53.4320 3.3240 341° North 460 529 30,000  Level FlightAware
07:20AM 53.5230 3.2710 341° North 459 528 30,000 300 Level FlightAware
07:21AM 53.6050 3.2230 341° North 463 533 30,500 720 Climbing FlightAware
07:22AM 53.6818 3.1451 341° North 476 548 31,000 900 Climbing FlightAware UK
07:22AM 53.6850 3.1380 341° North 458 527 31,200 1,140 Climbing FlightAware
07:23AM 53.7490 3.0060 309° West 457 526 32,000 900 Climbing FlightAware
07:23AM 53.7940 2.9060 307° West 462 532 32,500 1,020 Climbing FlightAware
07:24AM 53.8330 2.8200 308° West 462 532 33,100 960 Climbing FlightAware
07:24AM 53.8800 2.7180 308° West 464 534 33,600 600 Climbing FlightAware
07:25AM 53.9380 2.5900 308° West 463 533 34,000 240 Climbing FlightAware
07:26AM 53.9850 2.4840 308° West 461 531 34,000  Level FlightAware
07:26AM 53.9947 2.4632 308° West 480 552 34,000  Level FlightAware UK
07:26AM 54.0350 2.3740 308° West 461 531 34,000 -120 Level FlightAware
07:27AM 54.0795 2.2738 308° West 476 548 33,900  Descending FlightAware UK
07:27AM 54.0800 2.2750 308° West 463 533 34,000  Climbing FlightAware
07:27AM 54.1257 2.1705 308° West 478 550 33,900  Descending FlightAware UK
07:28AM 54.1390 2.1400 308° West 464 534 34,000 60 Climbing FlightAware
07:28AM 54.1970 2.0100 307° West 466 536 34,000  Level FlightAware
07:29AM 54.2510 1.8880 307° West 466 536 34,000  Level FlightAware
07:30AM 54.3010 1.7730 307° West 467 537 34,000  Level FlightAware
07:30AM 54.3600 1.6400 307° West 468 539 34,000  Level FlightAware
07:31AM 54.4150 1.5140 307° West 467 537 34,000 -180 Level FlightAware
07:31AM 54.4201 1.4998 307° West 480 552 33,900  Descending FlightAware UK
07:32AM 54.4540 1.4230 306° West 466 536 34,000  Climbing FlightAware
07:32AM 54.5045 1.3045 306° West 480 552 33,900  Descending FlightAware UK
07:32AM 54.5050 1.3040 306° West 466 536 34,000 120 Climbing FlightAware
07:33AM 54.5470 1.2080 307° West 466 536 34,000 -120 Level FlightAware
07:33AM 54.5886 1.1085 307° West 480 552 33,900  Descending FlightAware UK
07:34AM 54.5990 1.0860 307° West 465 535 34,000 120 Climbing FlightAware
07:34AM 54.6460 0.9760 306° West 465 535 34,000 -120 Level FlightAware
07:35AM 54.7025 0.8395 306° West 480 552 33,900  Descending FlightAware UK
07:35AM 54.6980 0.8510 306° West 464 534 34,000 120 Climbing FlightAware
07:36AM 54.7550 0.7170 306° West 463 533 34,000 -120 Level FlightAware
07:36AM 54.8080 0.5890 306° West 482 555 33,900  Descending FlightAware UK
07:36AM 54.8090 0.5890 306° West 462 532 34,000  Climbing FlightAware
07:37AM 54.8599 0.4637 306° West 478 550 33,900  Descending FlightAware UK
07:37AM 54.8670 0.4480 306° West 460 529 34,000 120 Climbing FlightAware
07:38AM 54.9120 0.3390 306° West 460 529 34,000  Level FlightAware
07:38AM 54.9480 0.2510 305° West 461 531 34,000  Level FlightAware
07:39AM 54.9920 0.1460 306° West 461 531 34,000  Level FlightAware
07:40AM 55.0520 -0.0010 306° West 461 531 34,000  Level FlightAware
07:40AM 55.1040 -0.1290 305° West 461 531 34,000 -120 Level FlightAware
07:41AM 55.1485 -0.2397 305° West 476 548 33,900  Descending FlightAware UK
07:41AM 55.1550 -0.2550 305° West 461 531 34,000  Climbing FlightAware
07:42AM 55.1997 -0.3669 305° West 478 550 33,900  Descending FlightAware UK
07:42AM 55.2090 -0.3900 305° West 462 532 34,000 120 Climbing FlightAware
07:42AM 55.2580 -0.5110 305° West 461 531 34,000 -120 Level FlightAware
07:43AM 55.2950 -0.6054 305° West 480 552 33,900  Descending FlightAware UK
07:43AM 55.3100 -0.6430 305° West 461 531 34,000  Climbing FlightAware
07:44AM 55.3533 -0.7518 305° West 480 552 33,900  Descending FlightAware UK
07:44AM 55.3630 -0.7750 305° West 461 531 34,000 60 Climbing FlightAware
07:45AM 55.4140 -0.9060 304° West 459 528 34,000  Level FlightAware
07:45AM 55.4630 -1.0310 305° West 461 531 34,000  Level FlightAware
07:46AM 55.5080 -1.1460 305° West 460 529 34,000  Level FlightAware
07:47AM 55.5660 -1.2980 304° West 460 529 34,000  Level FlightAware
07:47AM 55.6150 -1.4250 304° West 459 528 34,000  Level FlightAware
07:48AM 55.6490 -1.5160 304° West 459 528 34,000  Level FlightAware
07:49AM 55.6940 -1.6340 304° West 458 527 34,000 -120 Level FlightAware
07:49AM 55.7385 -1.7530 304° West 478 550 33,900  Descending FlightAware UK
07:49AM 55.7430 -1.7640 304° West 458 527 34,000 120 Climbing FlightAware
07:50AM 55.7890 -1.8860 304° West 458 527 34,000 -180 Level FlightAware
07:50AM 55.7947 -1.9028 304° West 482 555 33,900  Descending FlightAware UK
07:51AM 55.8320 -2.0010 304° West 457 526 34,000 60 Climbing FlightAware
07:51AM 55.8680 -2.0990 303° West 457 526 34,000  Level FlightAware
07:52AM 55.9200 -2.2400 303° West 457 526 34,000  Level FlightAware
07:52AM 55.9730 -2.3820 304° West 456 525 34,000  Level FlightAware
07:53AM 56.0080 -2.4730 305° West 457 526 34,000 -120 Level FlightAware
07:53AM 56.0464 -2.5772 305° West 478 550 33,900  Descending FlightAware UK
07:54AM 56.0540 -2.5980 305° West 456 525 34,000 120 Climbing FlightAware
07:54AM 56.0880 -2.6910 303° West 456 525 34,000 -120 Level FlightAware
07:55AM 56.1298 -2.8038 303° West 474 545 33,900  Descending FlightAware UK
07:55AM 56.1290 -2.8000 303° West 457 526 34,000  Climbing FlightAware
07:55AM 56.1781 -2.9357 303° West 474 545 33,900  Descending FlightAware UK
07:55AM 56.1740 -2.9250 303° West 457 526 34,000 180 Climbing FlightAware
07:56AM 56.2070 -3.0130 303° West 458 527 34,000 -240 Level FlightAware
07:56AM 56.2198 -3.0499 303° West 472 543 33,900 -180 Descending FlightAware UK
07:57AM 56.2615 -3.1645 303° West 474 545 33,900 120 Level FlightAware UK
07:57AM 56.2540 -3.1420 303° West 459 528 34,000 180 Climbing FlightAware
07:57AM 56.2870 -3.2360 302° West 460 529 34,000  Level FlightAware
07:58AM 56.3310 -3.3560 304° West 461 531 34,000  Level FlightAware
07:58AM 56.3810 -3.5040 301° West 460 529 34,000  Level FlightAware
07:59AM 56.4250 -3.6450 299° West 459 528 34,000  Level FlightAware
08:00AM 56.4670 -3.7820 299° West 455 524 34,000  Level FlightAware
08:00AM 56.5120 -3.9290 299° West 456 525 34,000  Level FlightAware
08:01AM 56.5490 -4.0520 299° West 455 524 34,000  Level FlightAware
08:02AM 56.5820 -4.1620 299° West 458 527 34,000  Level FlightAware
08:02AM 56.6120 -4.2650 298° West 458 527 34,000  Level FlightAware
08:03AM 56.6521 -4.3987 298° West 476 548 34,000  Level FlightAware UK
08:03AM 56.6540 -4.4050 298° West 458 527 34,000  Level FlightAware
08:03AM 56.6942 -4.5408 298° West 482 555 34,000  Level FlightAware UK
08:04AM 56.6930 -4.5370 298° West 458 527 34,000 -180 Level FlightAware
08:04AM 56.7279 -4.6648 298° West 472 543 33,900  Descending FlightAware UK
08:04AM 56.7240 -4.6490 298° West 457 526 34,000 120 Climbing FlightAware
08:05AM 56.7600 -4.7901 298° West 468 539 34,000  Level FlightAware UK
08:05AM 56.7580 -4.7830 298° West 458 527 34,000  Level FlightAware
08:05AM 56.7980 -4.9364 298° West 490 564 34,000  Level FlightAware UK
08:05AM 56.7990 -4.9400 298° West 458 527 34,000 -180 Level FlightAware
08:06AM 56.8360 -5.0824 298° West 472 543 33,900  Descending FlightAware UK
08:06AM 56.8330 -5.0720 298° West 455 524 34,000 120 Climbing FlightAware
08:07AM 56.8736 -5.2277 298° West 478 550 34,000  Level FlightAware UK
08:07AM 56.8770 -5.2420 298° West 455 524 34,000 -180 Level FlightAware
08:07AM 56.9058 -5.3523 298° West 476 548 33,900  Descending FlightAware UK
08:08AM 56.9140 -5.3830 298° West 454 522 34,000 120 Climbing FlightAware
08:08AM 56.9390 -5.4830 295° West 452 520 34,000  Level FlightAware
08:09AM 56.9680 -5.5950 295° West 453 521 34,000  Level FlightAware
08:09AM 57.0030 -5.7350 295° West 453 521 34,000  Level FlightAware
08:10AM 57.0380 -5.8760 295° West 450 518 34,000  Level FlightAware
08:10AM 57.0428 -5.8932 295° West 472 543 34,000  Level FlightAware UK
08:10AM 57.0640 -5.9790 295° West 449 517 34,000  Level FlightAware
08:10AM 57.0687 -5.9970 295° West 468 539 34,000  Level FlightAware UK
08:11AM 57.0942 -6.1009 295° West 472 543 34,000  Level FlightAware UK
08:11AM 57.1020 -6.1310 295° West 449 517 34,000  Level FlightAware
08:12AM 57.1360 -6.2710 294° West 447 514 34,000  Level FlightAware
08:12AM 57.1560 -6.3520 295° West 448 516 34,000 -120 Level FlightAware
08:13AM 57.1866 -6.4763 295° West 472 543 33,900  Descending FlightAware UK
08:13AM 57.1940 -6.5060 295° West 449 517 34,000 60 Climbing FlightAware
08:14AM 57.2280 -6.6470 294° West 449 517 34,000 -120 Level FlightAware
08:14AM 57.2680 -6.8140 294° West 472 543 33,900  Descending FlightAware UK
08:14AM 57.2680 -6.8120 294° West 450 518 34,000  Climbing FlightAware
08:15AM 57.2931 -6.9193 294° West 476 548 33,900  Descending FlightAware UK
08:15AM 57.3050 -6.9700 294° West 446 513 34,000 120 Climbing FlightAware
08:16AM 57.3300 -7.0750 294° West 448 516 34,000  Level FlightAware
08:16AM 57.3630 -7.2110 294° West 442 509 34,000  Level FlightAware
08:17AM 57.3930 -7.3350 294° West 442 509 34,000 -180 Level FlightAware
08:17AM 57.3940 -7.3374 294° West 468 539 33,900 -240 Descending FlightAware UK
08:17AM 57.4193 -7.4415 294° West 466 536 33,900 180 Level FlightAware UK
08:17AM 57.4150 -7.4250 294° West 443 510 34,000  Climbing FlightAware
08:18AM 57.4445 -7.5459 294° West 466 536 33,900  Descending FlightAware UK
08:18AM 57.4550 -7.5910 294° West 447 514 34,000  Climbing FlightAware
08:19AM 57.4994 -7.7762 294° West 468 539 33,900  Descending FlightAware UK
08:19AM 57.5010 -7.7850 294° West 447 514 34,000 120 Climbing FlightAware
08:20AM 57.5340 -7.9240 294° West 446 513 34,000  Level FlightAware
08:20AM 57.5670 -8.0650 294° West 447 514 34,000  Level FlightAware
08:21AM 57.6010 -8.2100 294° West 447 514 34,000 -180 Level FlightAware
08:21AM 57.6035 -8.2194 294° West 472 543 33,900 -240 Descending FlightAware UK
08:22AM 57.6280 -8.3251 294° West 470 541 33,900 120 Level FlightAware UK
08:22AM 57.6330 -8.3500 294° West 446 513 34,000 60 Climbing FlightAware
08:22AM 57.6700 -8.5070 294° West 446 513 34,000 -120 Level FlightAware
08:23AM 57.7007 -8.6426 294° West 470 541 33,900  Descending FlightAware UK
08:23AM 57.7020 -8.6500 294° West 443 510 34,000 120 Climbing FlightAware
08:24AM 57.7360 -8.7980 293° West 443 510 34,000  Level FlightAware
08:24AM 57.7570 -8.8920 293° West 446 513 34,000  Level FlightAware
08:25AM 57.7870 -9.0280 293° West 444 511 34,000  Level FlightAware
08:26AM 57.8270 -9.2050 293° West 444 511 34,000  Level FlightAware
08:26AM 57.8510 -9.3200 291° West 444 511 34,000  Level FlightAware
08:27AM 57.8810 -9.4670 291° West 444 511 34,000  Level FlightAware
08:28AM 57.9040 -9.5780 291° West 444 511 34,000  Level FlightAware
08:29AM 57.9340 -9.7280 291° West 444 511 34,000  Level FlightAware
08:29AM 57.9910 -9.9590 295° West 444 511 34,000  Level FlightAware
08:30AM 58.0320 -10.1370 294° West 443 510 34,000  Level FlightAware
08:31AM 58.0660 -10.2610 297° West 446 513 34,000  Level FlightAware
08:31AM 58.0980 -10.3950 294° West 444 511 34,000  Level FlightAware
08:32AM 58.1690 -10.6000 303° West 439 505 34,000  Level FlightAware
08:33AM 58.2090 -10.7700 294° West 440 506 34,000  Level FlightAware
08:34AM 58.2570 -10.9670 295° West 439 505 34,000  Level FlightAware
08:35AM 58.2970 -11.1340 295° West 442 509 34,000  Level FlightAware
08:36AM 58.3380 -11.3020 295° West 443 510 34,000  Level FlightAware
08:36AM 58.3750 -11.4610 294° West 442 509 34,000  Level FlightAware
08:37AM 58.4210 -11.6550 294° West 442 509 34,000  Level FlightAware
08:38AM 58.4460 -11.7640 294° West 442 509 34,000  Level FlightAware
08:38AM 58.4700 -11.8680 294° West 442 509 34,000  Level FlightAware
08:39AM 58.5030 -12.0080 294° West 442 509 34,000  Level FlightAware
08:40AM 58.5420 -12.1820 293° West 443 510 34,000  Level FlightAware
08:40AM 58.5740 -12.3190 294° West 442 509 34,000  Level FlightAware
08:41AM 58.6070 -12.4730 292° West 442 509 34,000  Level FlightAware
08:42AM 58.6330 -12.5870 294° West 442 509 34,000  Level FlightAware
08:42AM 58.6500 -12.6660 292° West 442 509 34,000  Level FlightAware
08:43AM 58.6750 -12.7800 293° West 442 509 34,000  Level FlightAware
08:44AM 58.7100 -12.9370 293° West 442 509 34,000  Level FlightAware
08:44AM 58.7350 -13.0510 293° West 442 509 34,000  Level FlightAware
08:45AM 58.7670 -13.1960 293° West 442 509 34,000  Level FlightAware
08:46AM 58.7920 -13.3110 293° West 442 509 34,000  Level FlightAware
08:46AM 58.8180 -13.4280 293° West 442 509 34,000  Level FlightAware
08:47AM 58.8490 -13.5700 293° West 442 509 34,000  Level FlightAware
08:48AM 58.8740 -13.6850 293° West 442 509 34,000  Level FlightAware
08:48AM 58.8900 -13.7590 293° West 442 509 34,000  Level FlightAware
08:49AM 58.9240 -13.9110 293° West 442 509 34,000  Level FlightAware
08:50AM 58.9490 -14.0290 292° West 442 509 34,000  Level FlightAware
08:52AM 58.9704 -14.4282 276° West  Level Estimated
08:53AM 58.9817 -14.6502 276° West  Level Estimated
08:54AM 58.9927 -14.8723 276° West  Level Estimated
08:55AM 59.0035 -15.1005 275° West  Level Estimated
08:56AM 59.0140 -15.3289 275° West  Level Estimated
08:57AM 59.0240 -15.5574 275° West  Level Estimated
08:58AM 59.0337 -15.7860 275° West  Level Estimated
08:59AM 59.0429 -16.0148 275° West  Level Estimated
09:00AM 59.0518 -16.2436 274° West  Level Estimated
09:01AM 59.0602 -16.4726 274° West  Level Estimated
09:02AM 59.0682 -16.7017 274° West  Level Estimated
09:03AM 59.0759 -16.9309 274° West  Level Estimated
09:04AM 59.0831 -17.1602 274° West  Level Estimated
09:05AM 59.0899 -17.3896 273° West  Level Estimated
09:06AM 59.0963 -17.6191 273° West  Level Estimated
09:07AM 59.1023 -17.8487 273° West  Level Estimated
09:08AM 59.1079 -18.0783 273° West  Level Estimated
09:09AM 59.1132 -18.3080 273° West  Level Estimated
09:10AM 59.1180 -18.5378 272° West  Level Estimated
09:11AM 59.1223 -18.7677 272° West  Level Estimated
09:12AM 59.1263 -18.9975 272° West  Level Estimated
09:13AM 59.1299 -19.2275 272° West  Level Estimated
09:14AM 59.1331 -19.4575 272° West  Level Estimated
09:15AM 59.1358 -19.6875 271° West  Level Estimated
09:16AM 59.1382 -19.9176 271° West  Level Estimated
09:17AM 59.1401 -20.1477 271° West  Level Estimated
09:17AM 60.0000 -20.0000 274° West 428 493 34,000  Level ETMS Enhanced Traffic Management System
09:18AM 59.1417 -20.3778 271° West  Level Estimated
09:19AM 59.1428 -20.6116 271° West  Level Estimated
09:20AM 59.1436 -20.8454 270° West  Level Estimated
09:21AM 59.1439 -21.0792 270° West  Level Estimated
09:22AM 59.1438 -21.3130 270° West  Level Estimated
09:23AM 60.0583 -21.9011 273° West 428 493 34,000  Level FlightAware Transoceanic
09:24AM 60.0636 -22.1392 272° West 428 493 34,000  Level FlightAware Transoceanic
09:25AM 60.0685 -22.3773 272° West 428 493 34,000  Level FlightAware Transoceanic
09:26AM 60.0730 -22.6155 272° West 428 493 34,000  Level FlightAware Transoceanic
09:27AM 60.0771 -22.8538 272° West 428 493 34,000  Level FlightAware Transoceanic
09:28AM 60.0808 -23.0921 272° West 428 493 34,000  Level FlightAware Transoceanic
09:29AM 60.0840 -23.3305 271° West 428 493 34,000  Level FlightAware Transoceanic
09:30AM 60.0868 -23.5689 271° West 428 493 34,000  Level FlightAware Transoceanic
09:31AM 60.0891 -23.8074 271° West 428 493 34,000  Level FlightAware Transoceanic
09:32AM 60.0911 -24.0459 271° West 428 493 34,000  Level FlightAware Transoceanic
09:33AM 60.0926 -24.2844 271° West 428 493 34,000  Level FlightAware Transoceanic
09:34AM 60.0936 -24.5229 270° West 428 493 34,000  Level FlightAware Transoceanic
09:35AM 60.0943 -24.7614 270° West 428 493 34,000  Level FlightAware Transoceanic
09:36AM 60.0945 -25.0000 270° West 428 493 34,000  Level FlightAware Transoceanic
09:37AM 60.0943 -25.2386 270° West 428 493 34,000  Level FlightAware Transoceanic
09:38AM 60.0936 -25.4771 270° West 428 493 34,000  Level FlightAware Transoceanic
09:39AM 60.0926 -25.7156 269° West 428 493 34,000  Level FlightAware Transoceanic
09:40AM 60.0911 -25.9541 269° West 428 493 34,000  Level FlightAware Transoceanic
09:41AM 60.0891 -26.1926 269° West 428 493 34,000  Level FlightAware Transoceanic
09:42AM 60.0868 -26.4311 269° West 428 493 34,000  Level FlightAware Transoceanic
09:43AM 60.0840 -26.6695 269° West 428 493 34,000  Level FlightAware Transoceanic
09:44AM 60.0808 -26.9079 268° West 428 493 34,000  Level FlightAware Transoceanic
09:45AM 60.0771 -27.1462 268° West 428 493 34,000  Level FlightAware Transoceanic
09:46AM 60.0730 -27.3845 268° West 428 493 34,000  Level FlightAware Transoceanic
09:47AM 60.0685 -27.6227 268° West 428 493 34,000  Level FlightAware Transoceanic
09:48AM 60.0636 -27.8608 268° West 428 493 34,000  Level FlightAware Transoceanic
09:49AM 60.0583 -28.0989 267° West 428 493 34,000  Level FlightAware Transoceanic
09:50AM 60.0525 -28.3369 267° West 428 493 34,000  Level FlightAware Transoceanic
09:51AM 60.0462 -28.5748 267° West 428 493 34,000  Level FlightAware Transoceanic
09:52AM 60.0396 -28.8126 267° West 428 493 34,000  Level FlightAware Transoceanic
09:53AM 60.0325 -29.0503 266° West 428 493 34,000  Level FlightAware Transoceanic
09:54AM 60.0250 -29.2879 266° West 428 493 34,000  Level FlightAware Transoceanic
09:55AM 60.0171 -29.5254 266° West 428 493 34,000  Level FlightAware Transoceanic
09:56AM 60.0088 -29.7628 266° West 428 493 34,000  Level FlightAware Transoceanic
09:57AM 59.9999 -30.0019 266° West  Level FlightAware Approximate
09:58AM 60.0001 -30.0039 274° West  Level FlightAware Approximate
09:58AM 60.0000 -30.0000 274° West 461 531 34,000  Level ETMS Enhanced Traffic Management System
09:59AM 60.0084 -30.2432 274° West  Level FlightAware Approximate
10:00AM 60.0163 -30.4825 274° West  Level FlightAware Approximate
10:01AM 60.0238 -30.7220 274° West  Level FlightAware Approximate
10:02AM 60.0308 -30.9616 273° West  Level FlightAware Approximate
10:03AM 60.0373 -31.2013 273° West  Level FlightAware Approximate
10:04AM 60.0556 -31.7913 273° West 461 531 34,000  Level FlightAware Transoceanic
10:05AM 60.0616 -32.0476 273° West 461 531 34,000  Level FlightAware Transoceanic
10:06AM 60.0671 -32.3040 272° West 461 531 34,000  Level FlightAware Transoceanic
10:07AM 60.0720 -32.5606 272° West 461 531 34,000  Level FlightAware Transoceanic
10:08AM 60.0765 -32.8171 272° West 461 531 34,000  Level FlightAware Transoceanic
10:09AM 60.0805 -33.0738 272° West 461 531 34,000  Level FlightAware Transoceanic
10:10AM 60.0840 -33.3305 271° West 461 531 34,000  Level FlightAware Transoceanic
10:11AM 60.0870 -33.5873 271° West 461 531 34,000  Level FlightAware Transoceanic
10:12AM 60.0895 -33.8441 271° West 461 531 34,000  Level FlightAware Transoceanic
10:13AM 60.0914 -34.1009 271° West 461 531 34,000  Level FlightAware Transoceanic
10:14AM 60.0929 -34.3578 271° West 461 531 34,000  Level FlightAware Transoceanic
10:15AM 60.0939 -34.6147 270° West 461 531 34,000  Level FlightAware Transoceanic
10:16AM 60.0944 -34.8716 270° West 461 531 34,000  Level FlightAware Transoceanic
10:17AM 60.0944 -35.1284 270° West 461 531 34,000  Level FlightAware Transoceanic
10:18AM 60.0939 -35.3853 270° West 461 531 34,000  Level FlightAware Transoceanic
10:19AM 60.0929 -35.6422 269° West 461 531 34,000  Level FlightAware Transoceanic
10:20AM 60.0914 -35.8991 269° West 461 531 34,000  Level FlightAware Transoceanic
10:20AM 60.1000 -35.8500 268° West 460 529 34,000  Level Gander Center
10:21AM 60.0895 -36.1559 269° West 461 531 34,000  Level FlightAware Transoceanic
10:21AM 60.1000 -36.1000 270° West 450 518 34,000  Level Gander Center
10:22AM 60.0870 -36.4127 269° West 461 531 34,000  Level FlightAware Transoceanic
10:22AM 60.1000 -36.3333 270° West 450 518 34,000  Level Gander Center
10:23AM 60.0840 -36.6695 269° West 461 531 34,000  Level FlightAware Transoceanic
10:23AM 60.1000 -36.5667 270° West 440 506 34,000  Level Gander Center
10:24AM 60.0805 -36.9262 268° West 461 531 34,000  Level FlightAware Transoceanic
10:24AM 60.0833 -36.8167 262° West 450 518 34,000  Level Gander Center
10:25AM 60.0765 -37.1829 268° West 461 531 34,000  Level FlightAware Transoceanic
10:25AM 60.0833 -37.0667 270° West 450 518 34,000  Level Gander Center
10:26AM 60.0720 -37.4394 268° West 461 531 34,000  Level FlightAware Transoceanic
10:26AM 60.0833 -37.3000 270° West 440 506 34,000  Level Gander Center
10:27AM 60.0833 -37.5500 270° West 440 506 34,000  Level Gander Center
10:28AM 60.0667 -37.8000 262° West 440 506 34,000  Level Gander Center
10:29AM 60.0667 -38.0500 270° West 440 506 34,000  Level Gander Center
10:30AM 60.0500 -38.2667 261° West 440 506 34,000  Level Gander Center
10:31AM 60.0667 -38.5000 278° West 440 506 34,000  Level Gander Center
10:32AM 60.0500 -38.7500 263° West 440 506 34,000  Level Gander Center
10:33AM 60.0333 -39.0000 263° West 440 506 34,000  Level Gander Center
10:34AM 60.0333 -39.2500 270° West 450 518 34,000  Level Gander Center
10:35AM 60.0333 -39.5000 270° West 450 518 34,000  Level Gander Center
10:36AM 60.0167 -39.7500 263° West 450 518 34,000  Level Gander Center
10:37AM 60.0000 -40.0000 253° West 450 518 34,000  Level Gander Center
10:37AM 60.0000 -40.0000 253° West 451 519 34,000  Level ETMS Enhanced Traffic Management System
10:38AM 59.9667 -40.2333 254° West 450 518 34,000  Level Gander Center
10:39AM 59.9333 -40.4667 254° West 440 506 34,000  Level Gander Center
10:40AM 59.8833 -40.7000 247° West 450 518 34,000  Level Gander Center
10:41AM 59.8500 -40.9167 253° West 450 518 34,000  Level Gander Center
10:42AM 59.8167 -41.1500 254° West 450 518 34,000  Level Gander Center
10:43AM 59.7833 -41.3667 253° West 440 506 34,000  Level Gander Center
10:44AM 59.7333 -41.6000 247° West 440 506 34,000  Level Gander Center
10:45AM 59.7000 -41.8667 256° West 450 518 34,000  Level Gander Center
10:46AM 59.6500 -42.0833 246° West 450 518 34,000  Level Gander Center
10:47AM 59.6167 -42.3167 254° West 450 518 34,000  Level Gander Center
10:48AM 59.5833 -42.5333 253° West 450 518 34,000  Level Gander Center
10:49AM 59.5333 -42.7667 247° West 450 518 34,000  Level Gander Center
10:50AM 59.5000 -42.9833 253° West 450 518 34,000  Level Gander Center
10:51AM 59.4667 -43.2500 256° West 450 518 34,000  Level Gander Center
10:52AM 59.4167 -43.4667 246° West 450 518 34,000  Level Gander Center
10:53AM 59.3667 -43.7000 247° West 450 518 34,000  Level Gander Center
10:54AM 59.3333 -43.9167 253° West 450 518 34,000  Level Gander Center
10:55AM 59.2833 -44.1333 246° West 450 518 34,000  Level Gander Center
10:56AM 59.2500 -44.3833 255° West 450 518 34,000  Level Gander Center
10:57AM 59.2000 -44.6167 247° West 450 518 34,000  Level Gander Center
10:58AM 59.1500 -44.8333 246° West 450 518 34,000  Level Gander Center
10:59AM 59.1167 -45.0500 253° West 450 518 34,000  Level Gander Center
11:00AM 59.0667 -45.2667 246° West 450 518 34,000  Level Gander Center
11:01AM 59.0167 -45.5000 247° West 450 518 34,000  Level Gander Center
11:02AM 58.9667 -45.7167 246° West 450 518 34,000  Level Gander Center
11:03AM 58.9333 -45.9500 255° West 450 518 34,000  Level Gander Center
11:04AM 58.8833 -46.1667 246° West 450 518 34,000  Level Gander Center
11:05AM 58.8333 -46.4000 248° West 450 518 34,000  Level Gander Center
11:06AM 58.7833 -46.6167 246° West 450 518 34,000  Level Gander Center
11:07AM 58.7500 -46.8500 255° West 450 518 34,000  Level Gander Center
11:08AM 58.6833 -47.0833 241° Southwest 450 518 34,000  Level Gander Center
11:09AM 58.6500 -47.2500 249° West 450 518 34,000  Level Gander Center
11:10AM 58.6000 -47.5000 249° West 450 518 34,000  Level Gander Center
11:11AM 58.5500 -47.7167 246° West 450 518 34,000  Level Gander Center
11:12AM 58.4833 -47.9333 240° Southwest 450 518 34,000  Level Gander Center
11:13AM 58.4500 -48.1667 255° West 450 518 34,000  Level Gander Center
11:14AM 58.4000 -48.3833 246° West 450 518 34,000  Level Gander Center
11:15AM 58.3500 -48.6000 246° West 450 518 34,000  Level Gander Center
11:16AM 58.2833 -48.8000 238° Southwest 450 518 34,000  Level Gander Center
11:17AM 58.2333 -49.0167 246° West 450 518 34,000  Level Gander Center
11:18AM 58.1833 -49.2167 245° Southwest 440 506 34,000  Level Gander Center
11:19AM 58.1333 -49.4333 246° West 440 506 34,000  Level Gander Center
11:20AM 58.1000 -49.6333 253° West 440 506 34,000  Level Gander Center
11:21AM 58.0500 -49.8500 247° West 440 506 34,000  Level Gander Center
11:22AM 58.0000 -50.0833 248° West 440 506 34,000  Level Gander Center
11:23AM 58.0000 -50.0000 252° West 444 511 34,000  Level ETMS Enhanced Traffic Management System
11:23AM 57.9667 -50.2833 252° West 440 506 34,000  Level Gander Center
11:24AM 57.9167 -50.5167 248° West 440 506 34,000  Level Gander Center
11:25AM 57.8833 -50.7167 253° West 450 518 34,000  Level Gander Center
11:26AM 57.8500 -50.9500 255° West 450 518 34,000  Level Gander Center
11:27AM 57.8000 -51.1833 248° West 460 529 34,000  Level Gander Center
11:28AM 57.7667 -51.4167 255° West 460 529 34,000  Level Gander Center
11:29AM 57.7167 -51.6167 245° Southwest 450 518 34,000  Level Gander Center
11:31AM 57.6667 -51.8454 248° West  Level FlightAware Approximate
11:38AM 57.3443 -53.2645 248° West  Level FlightAware Approximate
11:39AM 57.2969 -53.4652 246° West  Level FlightAware Approximate
11:40AM 57.2492 -53.6654 246° West  Level FlightAware Approximate
11:41AM 57.2012 -53.8650 246° West  Level FlightAware Approximate
11:42AM 57.1529 -54.0642 246° West  Level FlightAware Approximate
11:43AM 57.1043 -54.2628 246° West  Level FlightAware Approximate
11:44AM 57.0554 -54.4608 246° West  Level FlightAware Approximate
11:45AM 57.0061 -54.6584 245° Southwest  Level FlightAware Approximate
11:46AM 56.9566 -54.8554 245° Southwest  Level FlightAware Approximate
11:46AM 57.0333 -55.0167 252° West 450 518 34,000  Level Gander Center
11:47AM 56.9067 -55.0520 245° Southwest  Level FlightAware Approximate
11:47AM 56.9833 -55.2500 249° West 440 506 34,000  Level Gander Center
11:48AM 56.8565 -55.2480 245° Southwest  Level FlightAware Approximate
11:48AM 56.9167 -55.4667 241° Southwest 450 518 34,000  Level Gander Center
11:49AM 56.8060 -55.4434 245° Southwest  Level FlightAware Approximate
11:49AM 56.9000 -55.6500 261° West 440 506 34,000  Level Gander Center
11:50AM 56.7704 -55.6492 253° West  Level FlightAware Approximate
11:50AM 56.8333 -55.8833 243° Southwest 440 506 34,000  Level Gander Center
11:50AM 56.8167 -55.9667 250° West 440 506 34,000  Level Gander Center
11:51AM 56.7343 -55.8546 252° West  Level FlightAware Approximate
11:51AM 56.7667 -56.2000 249° West 430 495 34,000  Level Gander Center
11:52AM 56.7333 -56.2833 234° Southwest 440 506 34,000  Level Gander Center
11:52AM 56.7000 -56.3833 239° Southwest 430 495 34,000  Level Gander Center
11:53AM 56.6167 -56.5500 228° Southwest 440 506 34,000  Level Gander Center
11:54AM 56.5833 -56.5833 209° Southwest 430 495 34,000  Level Gander Center
11:54AM 56.5333 -56.7333 239° Southwest 440 506 34,000  Level Gander Center
11:55AM 56.4667 -56.8667 228° Southwest 440 506 34,000  Level Gander Center
11:56AM 56.3667 -57.0667 228° Southwest 430 495 34,000  Level Gander Center
11:57AM 56.2833 -57.2167 225° Southwest 430 495 34,000  Level Gander Center
11:58AM 56.2500 -57.2833 228° Southwest 430 495 34,000  Level Gander Center
11:59AM 56.1667 -57.4500 228° Southwest 430 495 34,000  Level Gander Center
11:59AM 56.1333 -57.5000 220° Southwest 430 495 34,000  Level Gander Center
12:00PM 56.0500 -57.6667 228° Southwest 430 495 34,000  Level Gander Center
12:01PM 56.0000 -57.7500 223° Southwest 430 495 34,000  Level Gander Center
12:02PM 55.8833 -57.9833 228° Southwest 430 495 34,000  Level Gander Center
12:03PM 55.8500 -58.0667 235° Southwest 430 495 34,000  Level Gander Center
12:03PM 55.8000 -58.1667 228° Southwest 430 495 34,000  Level Gander Center
12:04PM 55.7667 -58.2167 220° Southwest 430 495 34,000  Level Gander Center
12:05PM 55.6833 -58.3833 228° Southwest 430 495 34,000  Level Gander Center
12:05PM 55.6333 -58.4667 223° Southwest 430 495 34,000  Level Gander Center
12:06PM 55.5833 -58.5333 217° Southwest 430 495 34,000  Level Gander Center
12:07PM 55.5000 -58.6833 226° Southwest 430 495 34,000  Level Gander Center
12:08PM 55.4333 -58.8333 232° Southwest 430 495 34,000  Level Gander Center
12:08PM 55.3833 -58.9333 229° Southwest 430 495 34,000  Level Gander Center
12:09PM 55.3500 -58.9833 220° Southwest 430 495 34,000  Level Gander Center
12:09PM 55.3000 -59.0500 217° Southwest 430 495 34,000  Level Gander Center
12:10PM 55.2667 -59.1500 240° Southwest 430 495 34,000  Level Gander Center
12:11PM 55.1833 -59.3000 226° Southwest 430 495 34,000  Level Gander Center
12:12PM 55.1000 -59.4500 226° Southwest 430 495 34,000  Level Gander Center
12:12PM 55.0500 -59.5333 224° Southwest 430 495 34,000  Level Gander Center
12:13PM 54.9667 -59.6500 219° Southwest 420 483 34,000  Level Gander Center
12:14PM 54.8833 -59.8000 226° Southwest 430 495 34,000  Level Gander Center
12:15PM 54.8167 -59.9500 232° Southwest 430 495 34,000  Level Gander Center
12:16PM 54.7333 -60.1000 226° Southwest 430 495 34,000  Level Gander Center
12:17PM 54.6833 -60.1833 224° Southwest 430 495 34,000  Level Gander Center
12:18PM 54.6000 -60.3333 226° Southwest 430 495 34,000  Level Gander Center
12:18PM 54.5500 -60.3833 210° Southwest 430 495 34,000  Level Gander Center
12:19PM 54.5167 -60.4833 240° Southwest 430 495 34,000  Level Gander Center
12:20PM 54.4167 -60.6167 218° Southwest 430 495 34,000  Level Gander Center
12:20PM 54.3833 -60.6833 229° Southwest 430 495 34,000  Level Gander Center
12:21PM 54.3500 -60.7333 221° Southwest 430 495 34,000  Level Gander Center
12:22PM 54.2500 -60.9167 227° Southwest 420 483 34,000  Level Gander Center
12:23PM 54.1667 -61.0333 219° Southwest 430 495 34,000  Level Gander Center
12:24PM 54.0833 -61.2000 230° Southwest 430 495 34,000  Level Gander Center
12:25PM 54.0000 -61.3167 219° Southwest 420 483 34,000  Level Gander Center
12:26PM 53.9167 -61.4500 223° Southwest 420 483 34,000  Level Gander Center
12:27PM 53.8333 -61.6000 227° Southwest 420 483 34,000  Level Gander Center
12:28PM 53.7500 -61.7333 223° Southwest 420 483 34,000  Level Gander Center
12:29PM 53.6667 -61.8667 223° Southwest 420 483 34,000  Level Gander Center
12:29PM 53.6333 -61.9333 230° Southwest 420 483 34,000  Level Gander Center
12:30PM 53.5833 -61.9833 211° Southwest 420 483 34,000  Level Gander Center
12:31PM 53.5000 -62.1333 227° Southwest 410 472 34,000  Level Gander Center
12:32PM 53.4167 -62.2667 224° Southwest 410 472 34,000  Level Gander Center
12:33PM 53.3167 -62.4000 219° Southwest 410 472 34,000  Level Gander Center
12:34PM 53.2500 -62.5333 230° Southwest 410 472 34,000  Level Gander Center
12:35PM 53.1500 -62.6500 215° Southwest 410 472 34,000  Level Gander Center
12:36PM 53.0833 -62.7833 230° Southwest 410 472 34,000  Level Gander Center
12:37PM 53.0000 -62.9167 224° Southwest 410 472 34,000  Level Gander Center
12:38PM 52.9167 -63.0333 220° Southwest 410 472 34,000  Level Gander Center
12:39PM 52.8333 -63.1667 224° Southwest 410 472 34,000  Level Gander Center
12:40PM 52.7500 -63.3000 224° Southwest 410 472 34,000  Level Gander Center
12:41PM 52.6500 -63.4333 219° Southwest 410 472 34,000  Level Gander Center
12:42PM 52.5667 -63.5667 224° Southwest 420 483 34,000  Level Gander Center
12:43PM 52.4833 -63.6667 216° Southwest 420 483 34,000  Level Gander Center
12:44PM 52.4000 -63.8000 224° Southwest 420 483 34,000  Level Gander Center
12:44PM 52.3500 -63.9000 231° Southwest 410 472 34,000  Level Moncton Center
12:45PM 52.2667 -64.0167 221° Southwest 410 472 34,000  Level Moncton Center
12:46PM 52.1833 -64.1500 224° Southwest 410 472 34,000  Level Moncton Center
12:47PM 52.0833 -64.2667 216° Southwest 410 472 34,000  Level Moncton Center
12:49PM 51.9667 -64.4333 221° Southwest 410 472 34,000  Level Gander Center
12:49PM 51.9167 -64.5333 231° Southwest 410 472 34,000  Level Moncton Center
12:50PM 51.8333 -64.6333 217° Southwest 420 483 34,000  Level Moncton Center
12:51PM 51.7500 -64.7833 228° Southwest 420 483 34,000  Level Moncton Center
12:52PM 51.6667 -64.9167 225° Southwest 420 483 34,000  Level Moncton Center
12:53PM 51.5833 -65.0167 217° Southwest 420 483 34,000  Level Moncton Center
12:54PM 51.4833 -65.1500 220° Southwest 420 483 34,000  Level Moncton Center
12:55PM 51.4000 -65.2500 217° Southwest 420 483 34,000  Level Moncton Center
12:56PM 51.3167 -65.3833 225° Southwest 420 483 34,000  Level Moncton Center
12:57PM 51.2333 -65.5167 225° Southwest 420 483 34,000  Level Moncton Center
12:58PM 51.1333 -65.6167 212° Southwest 420 483 34,000  Level Moncton Center
12:59PM 51.0333 -65.7500 220° Southwest 420 483 34,000  Level Moncton Center
01:00PM 50.9333 -65.8833 220° Southwest 420 483 34,000  Level Moncton Center
01:01PM 50.9000 -65.9167 212° Southwest 420 483 34,000  Level Montreal Center
01:02PM 50.8000 -66.0333 216° Southwest 420 483 34,000 300 Level Montreal Center
01:03PM 50.7167 -66.1667 225° Southwest 420 483 34,600 900 Climbing Montreal Center
01:04PM 50.6167 -66.2667 212° Southwest 420 483 35,900 660 Climbing Montreal Center
01:05PM 50.5333 -66.3833 222° Southwest 430 495 36,000  Climbing Montreal Center
01:06PM 50.4333 -66.5167 220° Southwest 430 495 36,000  Level Montreal Center
01:07PM 50.3500 -66.6333 222° Southwest 420 483 36,000  Level Montreal Center
01:08PM 50.2500 -66.7667 220° Southwest 420 483 36,000  Level Montreal Center
01:09PM 50.2000 -66.8833 236° Southwest 430 495 36,000  Level Gander Center
01:09PM 50.1333 -66.9500 213° Southwest 420 483 36,000  Level Moncton Center
01:10PM 50.0833 -66.9833 203° Southwest 420 483 36,000  Level Montreal Center
01:11PM 50.0000 -67.1000 222° Southwest 420 483 36,000  Level Montreal Center
01:12PM 49.9000 -67.2333 221° Southwest 420 483 36,000  Level Montreal Center
01:13PM 49.8167 -67.3333 218° Southwest 420 483 36,000  Level Montreal Center
01:14PM 49.7167 -67.4500 217° Southwest 420 483 36,000  Level Montreal Center
01:15PM 49.6333 -67.5667 222° Southwest 420 483 36,000  Level Montreal Center
01:16PM 49.5333 -67.6833 217° Southwest 420 483 36,000  Level Montreal Center
01:17PM 49.4333 -67.7833 213° Southwest 420 483 36,000  Level Montreal Center
01:18PM 49.3500 -67.9000 222° Southwest 420 483 36,000  Level Montreal Center
01:19PM 49.2500 -68.0167 217° Southwest 420 483 36,000  Level Montreal Center
01:20PM 49.1667 -68.1333 222° Southwest 420 483 36,000  Level Montreal Center
01:21PM 49.0833 -68.2500 223° Southwest 420 483 36,000  Level Montreal Center
01:22PM 49.0000 -68.3667 223° Southwest 420 483 36,000  Level Montreal Center
01:23PM 48.9167 -68.4833 223° Southwest 420 483 36,000  Level Montreal Center
01:29PM 48.4180 -69.2470 223° Southwest 430 495 36,000  Level FlightAware
01:29PM 48.3660 -69.3200 223° Southwest 430 495 36,000  Level FlightAware
01:30PM 48.3350 -69.3630 223° Southwest 430 495 36,000  Level FlightAware
01:31PM 48.2100 -69.5370 223° Southwest 431 496 36,000  Level FlightAware
01:32PM 48.1080 -69.6770 223° Southwest 433 498 36,000  Level FlightAware
01:33PM 48.0540 -69.7510 223° Southwest 433 498 36,000  Level FlightAware
01:34PM 47.9950 -69.8330 223° Southwest 434 499 36,000  Level FlightAware
01:34PM 47.9270 -69.9260 223° Southwest 435 501 36,000  Level FlightAware
01:35PM 47.8800 -69.9900 222° Southwest 434 499 36,000  Level FlightAware
01:36PM 47.8160 -70.0770 222° Southwest 434 499 36,000  Level FlightAware
01:37PM 47.7250 -70.1990 222° Southwest 434 499 36,000  Level FlightAware
01:37PM 47.6620 -70.2850 223° Southwest 435 501 36,000  Level FlightAware
01:38PM 47.6040 -70.3630 222° Southwest 436 502 36,000  Level FlightAware
01:39PM 47.5370 -70.4520 222° Southwest 437 503 36,000  Level FlightAware
01:39PM 47.4800 -70.5290 222° Southwest 438 504 36,000  Level FlightAware
01:40PM 47.4270 -70.5990 222° Southwest 439 505 36,000  Level FlightAware
01:41PM 47.3650 -70.6810 222° Southwest 441 507 36,000  Level FlightAware
01:41PM 47.3050 -70.7600 222° Southwest 441 507 36,000  Level FlightAware
01:42PM 47.2380 -70.8490 222° Southwest 441 507 36,000  Level FlightAware
01:43PM 47.1950 -70.9050 222° Southwest 441 507 36,000  Level FlightAware
01:43PM 47.1090 -71.0180 222° Southwest 441 507 36,000  Level FlightAware
01:44PM 47.0700 -71.0680 221° Southwest 441 507 36,000  Level FlightAware
01:44PM 47.0080 -71.1490 222° Southwest 441 507 36,000  Level FlightAware
01:45PM 46.9400 -71.2370 221° Southwest 441 507 36,000  Level FlightAware
01:46PM 46.8810 -71.3130 221° Southwest 441 507 36,000  Level FlightAware
01:47PM 46.8250 -71.3860 222° Southwest 441 507 36,000  Level FlightAware
01:47PM 46.7660 -71.4610 221° Southwest 441 507 36,000 -300 Level FlightAware
01:48PM 46.7110 -71.5310 221° Southwest 440 506 35,700 -900 Descending FlightAware
01:48PM 46.6510 -71.6090 222° Southwest 444 511 34,900 -1,320 Descending FlightAware
01:49PM 46.5800 -71.6990 221° Southwest 447 514 33,900 -1,380 Descending FlightAware
01:50PM 46.4890 -71.8160 222° Southwest 452 520 32,600 -1,320 Descending FlightAware
01:51PM 46.4210 -71.9040 222° Southwest 449 517 31,800 -1,560 Descending FlightAware
01:52PM 46.3560 -71.9890 222° Southwest 438 504 30,400 -1,920 Descending FlightAware
01:52PM 46.2960 -72.0650 221° Southwest 425 489 29,200 -2,280 Descending FlightAware
01:53PM 46.2330 -72.1460 222° Southwest 422 486 27,300 -2,640 Descending FlightAware
01:54PM 46.1800 -72.2130 221° Southwest 419 482 25,700 -2,640 Descending FlightAware
01:54PM 46.1350 -72.2710 222° Southwest 416 479 24,200 -2,760 Descending FlightAware
01:55PM 46.0600 -72.3670 222° Southwest 409 471 21,900 -2,760 Descending FlightAware
01:56PM 46.0000 -72.4420 221° Southwest 401 461 20,100 -2,460 Descending FlightAware
01:56PM 45.9450 -72.5120 222° Southwest 392 451 18,600 -2,100 Descending FlightAware
01:57PM 45.9100 -72.5560 221° Southwest 382 440 17,800 -1,860 Descending FlightAware
01:57PM 45.8610 -72.6170 221° Southwest 345 397 16,600 -2,100 Descending FlightAware
01:58PM 45.8150 -72.6750 221° Southwest 316 364 15,100 -1,860 Descending FlightAware
01:59PM 45.7760 -72.7240 221° Southwest 293 337 14,200 -1,440 Descending FlightAware
01:59PM 45.7510 -72.7610 226° Southwest 282 325 13,600 -1,440 Descending FlightAware
01:59PM 45.7440 -72.7890 250° West 272 313 13,200 -1,500 Descending FlightAware
02:00PM 45.7350 -72.8620 260° West 264 304 12,200 -1,620 Descending FlightAware
02:01PM 45.7300 -72.9190 263° West 261 300 11,200 -1,800 Descending FlightAware
02:01PM 45.7230 -72.9830 261° West 255 293 10,100 -1,680 Descending FlightAware
02:02PM 45.7210 -73.0090 264° West 249 287 9,700 -1,320 Descending FlightAware
02:02PM 45.7180 -73.0290 258° West 248 285 9,500 -1,260 Descending FlightAware
02:02PM 45.7090 -73.0800 256° West 243 280 8,800 -1,200 Descending FlightAware
02:03PM 45.7030 -73.1240 259° West 238 274 8,300 -1,020 Descending FlightAware
02:03PM 45.6970 -73.1620 257° West 228 262 7,900 -900 Descending FlightAware
02:03PM 45.6930 -73.1860 257° West 224 258 7,700 -960 Descending FlightAware
02:04PM 45.6870 -73.2270 258° West 221 254 7,200 -1,200 Descending FlightAware
02:04PM 45.6810 -73.2650 257° West 220 253 6,600 -1,320 Descending FlightAware
02:05PM 45.6750 -73.3050 258° West 218 251 6,000 -1,200 Descending FlightAware
02:05PM 45.6690 -73.3450 258° West 212 244 5,500 -1,020 Descending FlightAware
02:06PM 45.6640 -73.3800 258° West 203 234 5,100 -1,020 Descending FlightAware
02:06PM 45.6620 -73.4010 262° West 202 232 4,800 -960 Descending FlightAware
02:06PM 45.6560 -73.4380 257° West 192 221 4,400 -900 Descending FlightAware
02:07PM 45.6540 -73.4540 260° West 187 215 4,200 -840 Descending FlightAware
02:07PM 45.6470 -73.4840 252° West 178 205 3,800 -780 Descending FlightAware
02:08PM 45.6400 -73.4980 234° Southwest 176 203 3,500 -840 Descending FlightAware
02:08PM 45.6340 -73.5070 226° Southwest 177 204 3,300 -660 Descending FlightAware
02:09PM 45.5980 -73.5560 224° Southwest 181 208 2,900 -420 Descending FlightAware
02:09PM 45.5810 -73.5790 223° Southwest 179 206 2,800 -660 Descending FlightAware
02:10PM 45.5640 -73.6020 223° Southwest 171 197 2,300 -1,020 Descending FlightAware
02:10PM 45.5480 -73.6230 223° Southwest 175 201 1,900 -960 Descending FlightAware
02:10PM 45.5330 -73.6420 222° Southwest 170 196 1,500 -840 Descending FlightAware
02:11PM 45.5120 -73.6700 223° Southwest 150 173 1,000 -780 Descending FlightAware
02:11PM 45.5040 -73.6800 221° Southwest 150 173 800 -720 Descending FlightAware
02:12PM 45.4910 -73.6980 224° Southwest 149 171 500 -720 Descending FlightAware
02:13PM 45.4680 -73.7280 222° Southwest 110 127 -600 Descending FlightAware
02:13PM 45.4630 -73.7350 224° Southwest 54 62  Level FlightAware
02:13PM 45.4590 -73.7390 215° Southwest 29 33  Level FlightAware
02:14PM 45.4580 -73.7410 235° Southwest 13 15  Level FlightAware
02:14PM 45.4590 -73.7420 325° Northwest 8 9  Level FlightAware
02:15PM 45.4620 -73.7460 317° Northwest 16 18  Level FlightAware